Flight Track Log - Related Links

Times and Time Zones

All times are in EDT time to prevent confusion due to time zone crossing. See the ASQ5013 flight status page for this flight to view local times or setup timezone preferences in your user account.


Time Position Orientation Groundspeed Altitude Reporting Facility
EDT Latitude Longitude Course Direction KTS MPH feet Rate Location/Type
Tue 04:36:59 PM 37.1794 -76.4494 29° Northeast 218 251 3,900  Level Washington Center
Tue 04:37:59 PM 37.1664 -76.5222 257° West 277 319 4,900 951 Climbing Washington Center
Tue 04:38:21 PM 37.1453 -76.5481 224° Southwest 274 315 5,200 2,459 Climbing Washington Center
Tue 04:39:00 PM 37.1158 -76.5894 228° Southwest 271 312 7,400 2,900 Climbing Washington Center
Tue 04:39:21 PM 37.0883 -76.6125 214° Southwest 267 307 8,100 2,519 Climbing Washington Center
Tue 04:40:21 PM 37.0358 -76.6717 222° Southwest 284 327 10,800 2,600 Climbing Washington Center
Tue 04:41:21 PM 36.9725 -76.7383 220° Southwest 289 333 13,300 2,200 Climbing Washington Center
Tue 04:42:21 PM 36.9094 -76.8050 220° Southwest 294 338 15,200 1,400 Climbing Washington Center
Tue 04:43:21 PM 36.8356 -76.8842 221° Southwest 324 373 16,100 1,300 Climbing Washington Center
Tue 04:44:21 PM 36.7553 -76.9686 220° Southwest 357 411 17,800 1,500 Climbing Washington Center
Tue 04:45:21 PM 36.6875 -77.0656 229° Southwest 369 425 19,100 1,300 Climbing Washington Center
Tue 04:46:21 PM 36.6358 -77.1761 240° Southwest 374 430 20,400 1,300 Climbing Washington Center
Tue 04:47:21 PM 36.5842 -77.2914 241° Southwest 386 444 21,700 1,240 Climbing Washington Center
Tue 04:48:22 PM 36.5303 -77.4067 240° Southwest 386 444 22,900 1,100 Climbing Washington Center
Tue 04:49:21 PM 36.4767 -77.5164 239° Southwest 404 465 23,900 1,008 Climbing Washington Center
Tue 04:50:21 PM 36.3850 -77.6225 223° Southwest 404 465 24,900 850 Climbing Washington Center
Tue 04:51:21 PM 36.2897 -77.7128 217° Southwest 415 478 25,600 750 Climbing Washington Center
Tue 04:52:21 PM 36.1939 -77.8106 219° Southwest 440 506 26,400 750 Climbing Washington Center
Tue 04:53:21 PM 36.0942 -77.9028 217° Southwest 451 519 27,100 700 Climbing Washington Center
Tue 04:54:21 PM 35.9964 -77.9975 218° Southwest 451 519 27,800 600 Climbing Washington Center
Tue 04:56:21 PM 35.7983 -78.1914 218° Southwest 456 525 28,900 533 Climbing Washington Center
Tue 04:57:21 PM 35.6958 -78.2878 217° Southwest 456 525 29,400 500 Climbing Washington Center
Tue 04:58:21 PM 35.5958 -78.3814 217° Southwest 456 525 29,900 300 Climbing Washington Center
Tue 04:59:21 PM 35.4931 -78.4797 218° Southwest 461 531 30,000 50 Climbing Washington Center
Tue 05:00:21 PM 35.4056 -78.5658 219° Southwest 456 525 30,000  Level Washington Center
Tue 05:01:22 PM 35.3050 -78.6589 217° Southwest 456 525 30,000  Level Washington Center
Tue 05:02:22 PM 35.2067 -78.7517 218° Southwest 456 525 30,000  Level Washington Center
Tue 05:03:21 PM 35.1125 -78.8419 218° Southwest 451 519 30,000  Level Washington Center
Tue 05:04:21 PM 35.0161 -78.9319 217° Southwest 451 519 30,000  Level Washington Center
Tue 05:05:21 PM 34.9219 -79.0192 217° Southwest 451 519 30,000  Level Washington Center
Tue 05:07:33 PM 34.7325 -79.2297 222° Southwest 411 473 30,000  Level Jacksonville Center
Tue 05:08:33 PM 34.6836 -79.3503 244° Southwest 405 466 30,000  Level Jacksonville Center
Tue 05:09:32 PM 34.6347 -79.4683 243° Southwest 405 466 30,000  Level Jacksonville Center
Tue 05:10:32 PM 34.5858 -79.5889 244° Southwest 405 466 30,000  Level Jacksonville Center
Tue 05:11:32 PM 34.5369 -79.7067 243° Southwest 399 459 30,000  Level Jacksonville Center
Tue 05:12:32 PM 34.4878 -79.8319 245° Southwest 394 453 30,000  Level Jacksonville Center
Tue 05:13:32 PM 34.4364 -79.9522 243° Southwest 394 453 30,000  Level Jacksonville Center
Tue 05:14:32 PM 34.3889 -80.0694 244° Southwest 394 453 30,000  Level Jacksonville Center
Tue 05:15:32 PM 34.3372 -80.1842 241° Southwest 399 459 30,000  Level Jacksonville Center
Tue 05:16:33 PM 34.2875 -80.3014 243° Southwest 399 459 30,000  Level Jacksonville Center
Tue 05:17:32 PM 34.2400 -80.4183 244° Southwest 399 459 30,000  Level Jacksonville Center
Tue 05:18:32 PM 34.1900 -80.5353 243° Southwest 399 459 30,000  Level Jacksonville Center
Tue 05:19:33 PM 34.1358 -80.6547 241° Southwest 399 459 30,000  Level Jacksonville Center
Tue 05:20:32 PM 34.0878 -80.7714 244° Southwest 399 459 30,000  Level Jacksonville Center
Tue 05:21:32 PM 34.0353 -80.8853 241° Southwest 399 459 30,000  Level Jacksonville Center
Tue 05:22:32 PM 33.9850 -81.0042 243° Southwest 399 459 30,000  Level Jacksonville Center
Tue 05:23:32 PM 33.9367 -81.1178 243° Southwest 399 459 30,000  Level Jacksonville Center
Tue 05:24:32 PM 33.8819 -81.2339 240° Southwest 399 459 30,000  Level Jacksonville Center
Tue 05:25:32 PM 33.8333 -81.3500 243° Southwest 399 459 30,000  Level Jacksonville Center
Tue 05:27:29 PM 33.7319 -81.5758 242° Southwest 399 459 30,000  Level Atlanta Center
Tue 05:28:29 PM 33.6778 -81.6897 240° Southwest 399 459 30,000  Level Atlanta Center
Tue 05:29:29 PM 33.6342 -81.8058 246° West 399 459 30,000  Level Atlanta Center
Tue 05:30:29 PM 33.5967 -81.9289 250° West 392 451 30,000  Level Atlanta Center
Tue 05:31:29 PM 33.5589 -82.0494 249° West 387 445 30,000  Level Atlanta Center
Tue 05:32:29 PM 33.5233 -82.1700 251° West 387 445 30,000  Level Atlanta Center
Tue 05:33:29 PM 33.4914 -82.2678 249° West 387 445 30,000  Level Atlanta Center
Tue 05:34:29 PM 33.4556 -82.4056 253° West 392 451 30,000  Level Atlanta Center
Tue 05:35:29 PM 33.4156 -82.5256 248° West 387 445 30,000  Level Atlanta Center
Tue 05:36:29 PM 33.3814 -82.6481 252° West 392 451 30,000 -300 Level Atlanta Center
Tue 05:37:29 PM 33.3369 -82.7806 248° West 392 451 29,400 -950 Descending Atlanta Center
Tue 05:38:29 PM 33.3025 -82.8931 250° West 392 451 28,100 -1,500 Descending Atlanta Center
Tue 05:39:29 PM 33.2619 -83.0278 250° West 392 451 26,400 -1,600 Descending Atlanta Center
Tue 05:40:29 PM 33.2275 -83.1447 251° West 387 445 24,900 -1,550 Descending Atlanta Center
Tue 05:41:29 PM 33.1886 -83.2644 249° West 387 445 23,300 -1,550 Descending Atlanta Center
Tue 05:42:29 PM 33.1536 -83.3739 249° West 378 435 21,800 -1,500 Descending Atlanta Center
Tue 05:43:29 PM 33.0978 -83.4783 237° Southwest 372 428 20,300 -1,400 Descending Atlanta Center
Tue 05:44:29 PM 33.0503 -83.5753 240° Southwest 372 428 19,000 -1,450 Descending Atlanta Center
Tue 05:45:29 PM 33.0672 -83.6719 282° West 309 356 17,400 -1,902 Descending Atlanta Center
Tue 05:46:32 PM 33.1667 -83.7667 321° Northwest 388 447 15,100 -1,533 Descending Atlanta TRACON
Tue 05:48:29 PM 33.2911 -83.9219 314° West 362 417 12,800 -1,051 Descending Atlanta Center
Tue 05:49:29 PM 33.3497 -84.0139 307° West 354 407 12,000 -400 Descending Atlanta Center
Tue 05:50:29 PM 33.4103 -84.1036 309° West 348 400 12,000  Level Atlanta Center
Tue 05:51:32 PM 33.4833 -84.2000 312° West 339 390 12,000  Level Atlanta TRACON
Tue 05:52:32 PM 33.5333 -84.2833 306° West 257 296 12,000 -550 Level Atlanta TRACON
Tue 05:53:32 PM 33.5500 -84.3500 287° West 238 274 10,900 -1,350 Descending Atlanta TRACON
Tue 05:54:32 PM 33.5500 -84.4333 270° West 243 280 9,300 -1,650 Descending Atlanta TRACON
Tue 05:55:32 PM 33.5500 -84.5000 270° West 226 260 7,600 -1,800 Descending Atlanta TRACON
Tue 05:57:32 PM 33.5667 -84.6500 278° West 246 283 3,900 -1,500 Descending Atlanta TRACON
Tue 05:58:32 PM 33.6167 -84.6333 16° North 231 266 3,100 -450 Descending Atlanta TRACON
Tue 05:59:32 PM 33.6167 -84.5667 90° East 181 208 3,000 -500 Descending Atlanta TRACON
Tue 06:00:32 PM 33.6167 -84.5167 90° East 159 183 2,100 -800 Descending Atlanta TRACON
Tue 06:01:32 PM 33.6167 -84.4667 90° East 144 166 1,400 -700 Descending Atlanta TRACON
Tue 06:03:00 PM 33.6333 -84.4167 64° Northeast  Level FlightAware Approximate
Tue 06:10:00 PM 33.6367 -84.4279 64° Northeast  Level Estimated

Login

Don't have an account? Register now (free) for customized features, flight alerts, and more!